National Weather Service Raw Text Product

Displaying AFOS PIL: TAFMCW Received: 2018-02-09 02:25 UTC


337 
FTUS43 KDMX 090225 AAB
TAFMCW
TAF AMD
KMCW 090225Z 0902/0924 06007KT 3SM -SN OVC035
      TEMPO 0903/0907 1SM -SN OVC020
     FM090900 03012KT P6SM VCSH BKN027
     FM091200 02011KT P6SM BKN035=